Time;durP1;ratioP1;P1;durP2;ratioP2;P2;SDS_P1;SDS_P2;PMS_P1;PMS_P2;Temp;Humidity;BMP_temperature;BMP_pressure;BME280_temperature;BME280_humidity;BME280_pressure;Samples;Min_cycle;Max_cycle;Signal;HPM_P1;HPM_P2
2022/12/17 13:06:55;;;;;;;17.30;9.07;;;5.60;99.90;;;;;;21052924;28;20048;-78
2022/12/17 13:17:14;;;;;;;19.45;9.75;;;5.60;99.90;;;;;;21050196;28;20043;-79
2022/12/17 13:27:37;;;;;;;20.50;11.20;;;5.90;99.90;;;;;;21036675;28;20043;-78
2022/12/17 13:38:16;;;;;;;15.48;8.20;;;6.30;99.90;;;;;;21017907;28;20093;-79
2022/12/17 13:48:25;;;;;;;14.75;8.48;;;5.30;99.90;;;;;;21043722;28;20035;-79
2022/12/17 13:58:31;;;;;;;13.85;6.80;;;6.30;99.90;;;;;;21059755;28;20044;-79
2022/12/17 14:08:32;;;;;;;14.98;7.55;;;4.10;99.90;;;;;;21065417;28;20065;-79
2022/12/17 14:18:33;;;;;;;14.80;7.32;;;5.20;99.90;;;;;;21066517;28;20421;-78
2022/12/17 14:28:43;;;;;;;14.80;8.15;;;4.30;99.90;;;;;;21052218;28;21018;-80
2022/12/17 14:38:59;;;;;;;14.00;7.75;;;3.30;99.90;;;;;;21066940;28;20036;-78
2022/12/17 14:49:03;;;;;;;55.63;24.27;;;2.70;99.90;;;;;;21057039;28;20036;-79
2022/12/17 14:59:04;;;;;;;17.38;8.30;;;2.00;99.90;;;;;;21045660;22;20068;-77
2022/12/17 15:09:05;;;;;;;17.05;8.98;;;1.40;99.90;;;;;;20953268;28;20524;-77
2022/12/17 15:19:06;;;;;;;16.58;8.23;;;1.50;99.90;;;;;;20966823;28;20070;-77
2022/12/17 15:29:06;;;;;;;21.38;10.60;;;0.60;99.90;;;;;;20963574;28;20500;-76
2022/12/17 15:39:08;;;;;;;20.30;10.20;;;-0.60;99.90;;;;;;20962887;28;20118;-76
2022/12/17 15:49:08;;;;;;;29.38;11.95;;;-1.00;99.90;;;;;;20961398;28;20044;-76
2022/12/17 15:59:10;;;;;;;29.67;12.82;;;-1.40;99.90;;;;;;20959512;28;20048;-76
2022/12/17 16:09:10;;;;;;;32.30;14.57;;;-1.50;99.90;;;;;;20941747;28;20032;-76
2022/12/17 16:19:11;;;;;;;32.38;14.57;;;-1.50;99.90;;;;;;20938874;28;20563;-76
2022/12/17 16:29:12;;;;;;;40.30;17.35;;;-1.80;99.90;;;;;;20958897;28;21044;-76
2022/12/17 16:39:15;;;;;;;41.38;16.38;;;-1.90;99.90;;;;;;20957727;28;20047;-77
2022/12/17 16:49:18;;;;;;;35.97;15.23;;;-2.00;99.90;;;;;;20958950;28;20032;-77
2022/12/17 16:59:20;;;;;;;31.35;14.73;;;-2.20;99.90;;;;;;20959240;28;20032;-75
2022/12/17 17:09:23;;;;;;;32.70;15.70;;;-2.30;99.90;;;;;;20960068;28;20032;-75
2022/12/17 17:19:24;;;;;;;37.15;15.95;;;-2.50;99.90;;;;;;20959649;28;20036;-77
2022/12/17 17:29:24;;;;;;;33.50;15.73;;;-2.80;99.90;;;;;;20931325;28;20047;-77
2022/12/17 17:39:26;;;;;;;43.30;16.83;;;-3.20;99.90;;;;;;20986152;28;20032;-77
2022/12/17 17:49:27;;;;;;;43.00;18.50;;;-3.30;99.90;;;;;;20975552;28;20140;-77
2022/12/17 17:59:28;;;;;;;42.58;17.63;;;-3.30;99.90;;;;;;20958595;28;20032;-77
2022/12/17 18:09:29;;;;;;;41.53;18.25;;;-3.30;99.90;;;;;;20982144;28;20028;-77
2022/12/17 18:19:30;;;;;;;42.00;16.45;;;-3.40;99.90;;;;;;20965239;28;21370;-78
2022/12/17 18:29:31;;;;;;;39.60;17.77;;;-3.10;99.90;;;;;;20966513;28;20031;-77
2022/12/17 18:39:32;;;;;;;39.15;16.05;;;-3.10;99.90;;;;;;20979132;28;20039;-77
2022/12/17 18:49:32;;;;;;;37.15;17.10;;;-2.90;99.90;;;;;;20971341;28;20743;-77
2022/12/17 18:59:33;;;;;;;40.05;17.98;;;-2.80;99.90;;;;;;20950545;28;20048;-77
2022/12/17 19:09:34;;;;;;;43.35;19.30;;;-2.60;99.90;;;;;;20967719;28;20040;-76
2022/12/17 19:19:35;;;;;;;43.00;17.63;;;-2.60;99.90;;;;;;20965475;28;20037;-77
2022/12/17 19:29:36;;;;;;;44.05;18.10;;;-2.60;99.90;;;;;;20952562;28;20387;-77
2022/12/17 19:39:37;;;;;;;37.85;17.02;;;-2.50;99.90;;;;;;20957296;28;20518;-77
2022/12/17 19:49:37;;;;;;;35.50;15.75;;;-2.40;99.90;;;;;;20950762;28;20557;-78
2022/12/17 19:59:41;;;;;;;34.83;14.60;;;-2.30;99.90;;;;;;20945963;28;20047;-77
2022/12/17 20:09:43;;;;;;;32.30;14.68;;;-2.30;99.90;;;;;;20931067;28;20025;-77
2022/12/17 20:19:44;;;;;;;40.70;16.55;;;-2.20;99.90;;;;;;20919591;28;20025;-78
2022/12/17 20:29:45;;;;;;;34.22;15.93;;;-2.30;99.90;;;;;;20928605;28;20029;-77
2022/12/17 20:39:46;;;;;;;33.80;15.07;;;-2.20;99.90;;;;;;20914378;28;20029;-77
2022/12/17 20:49:47;;;;;;;32.00;15.43;;;-2.20;99.90;;;;;;20926832;28;20442;-77
2022/12/17 20:59:48;;;;;;;33.60;15.27;;;-2.20;99.90;;;;;;21006638;22;20051;-80
2022/12/17 21:09:48;;;;;;;28.98;14.35;;;-2.20;99.90;;;;;;20983587;28;20037;-79
2022/12/17 21:19:49;;;;;;;38.38;16.77;;;-2.10;99.90;;;;;;20937298;28;20067;-80
2022/12/17 21:29:50;;;;;;;30.92;14.20;;;-2.10;99.90;;;;;;20923482;28;20028;-79
2022/12/17 21:39:51;;;;;;;28.92;15.13;;;-2.20;99.90;;;;;;20955663;28;20029;-80
2022/12/17 21:49:51;;;;;;;35.17;16.10;;;-2.20;99.90;;;;;;20955507;28;20090;-79
2022/12/17 21:59:52;;;;;;;31.60;15.07;;;-2.20;99.90;;;;;;20932417;28;20032;-81
2022/12/17 22:09:53;;;;;;;37.45;14.73;;;-2.20;99.90;;;;;;20954026;28;20029;-78
2022/12/17 22:19:54;;;;;;;40.03;16.35;;;-2.20;99.90;;;;;;20947741;28;20028;-80
2022/12/17 22:40:14;;;;;;;36.10;16.50;;;-2.20;99.90;;;;;;21035299;28;20039;-80
2022/12/17 22:50:15;;;;;;;39.10;17.10;;;-2.20;99.90;;;;;;21024668;28;20033;-80
2022/12/17 23:00:21;;;;;;;36.67;16.55;;;-2.20;99.90;;;;;;20950802;28;20406;-81
2022/12/17 23:10:23;;;;;;;37.65;16.52;;;-2.20;99.90;;;;;;21030198;28;20032;-80
2022/12/17 23:20:24;;;;;;;51.00;18.40;;;-2.10;99.90;;;;;;21025023;28;20025;-82
2022/12/17 23:30:25;;;;;;;47.13;18.40;;;-2.10;99.90;;;;;;20971649;28;20092;-82
2022/12/17 23:40:26;;;;;;;41.17;18.45;;;-2.00;99.90;;;;;;20969268;28;20094;-81
2022/12/17 23:50:27;;;;;;;43.72;17.35;;;-2.00;99.90;;;;;;20968237;28;20040;-80
